createdAt,value
2017-06-26T00:00:19.931Z,89.23
2017-06-26T00:02:48.316Z,89.23
2017-06-26T00:05:16.727Z,89.14
2017-06-26T00:07:45.495Z,89.11
2017-06-26T00:10:13.966Z,89.06
2017-06-26T00:12:42.339Z,89.21
2017-06-26T00:15:11.030Z,89.13
2017-06-26T00:17:39.410Z,89.23
2017-06-26T00:20:07.783Z,89.35
2017-06-26T00:22:36.166Z,89.34
2017-06-26T00:25:04.561Z,89.43
2017-06-26T00:27:32.943Z,89.53
2017-06-26T00:30:01.315Z,89.79
2017-06-26T00:32:29.700Z,89.83
2017-06-26T00:34:58.408Z,89.98
2017-06-26T00:37:26.795Z,90.02
2017-06-26T00:39:55.559Z,90.08
2017-06-26T00:42:24.671Z,90.07
2017-06-26T00:44:53.442Z,90.28
2017-06-26T00:47:21.816Z,90.20
2017-06-26T00:49:50.202Z,90.03
2017-06-26T00:52:18.570Z,89.63
2017-06-26T00:54:46.967Z,89.79
2017-06-26T00:57:15.354Z,89.53
2017-06-26T00:59:44.330Z,89.53
2017-06-26T01:02:12.708Z,89.26
2017-06-26T01:04:41.091Z,88.83
2017-06-26T01:07:09.472Z,88.91
2017-06-26T01:09:37.879Z,88.88
2017-06-26T01:12:06.670Z,88.88
2017-06-26T01:14:35.048Z,88.39
2017-06-26T01:17:03.822Z,88.17
2017-06-26T01:19:32.924Z,88.62
2017-06-26T01:22:01.749Z,89.03
2017-06-26T01:24:30.134Z,89.54
2017-06-26T01:26:58.631Z,89.86
2017-06-26T01:29:27.006Z,90.44
2017-06-26T01:31:55.381Z,91.15
2017-06-26T01:34:23.803Z,90.90
2017-06-26T01:36:52.279Z,90.99
2017-06-26T01:39:20.771Z,91.22
2017-06-26T01:41:49.143Z,91.52
2017-06-26T01:44:17.622Z,91.43
2017-06-26T01:46:45.995Z,91.32
2017-06-26T01:49:14.578Z,91.33
2017-06-26T01:51:43.062Z,91.32
2017-06-26T01:54:11.441Z,91.31
2017-06-26T01:56:39.832Z,91.58
2017-06-26T01:59:08.211Z,91.21
2017-06-26T02:01:37.235Z,91.04
2017-06-26T02:04:06.302Z,90.98
2017-06-26T02:06:35.002Z,90.63
2017-06-26T02:09:03.836Z,90.45
2017-06-26T02:11:32.215Z,90.25
2017-06-26T02:14:00.611Z,89.97
2017-06-26T02:16:28.987Z,89.97
2017-06-26T02:18:57.380Z,89.65
2017-06-26T02:21:26.002Z,89.48
2017-06-26T02:23:54.790Z,89.20
2017-06-26T02:26:23.562Z,89.43
2017-06-26T02:28:52.139Z,89.53
2017-06-26T02:31:20.519Z,89.50
2017-06-26T02:33:48.894Z,89.33
2017-06-26T02:36:17.278Z,89.41
2017-06-26T02:38:45.890Z,89.16
2017-06-26T02:41:14.670Z,89.04
2017-06-26T02:43:43.543Z,89.05
2017-06-26T02:46:11.984Z,89.19
2017-06-26T02:48:40.407Z,89.42
2017-06-26T02:51:08.795Z,89.38
2017-06-26T02:53:37.172Z,89.50
2017-06-26T02:56:06.082Z,89.75
2017-06-26T02:58:34.846Z,90.12
2017-06-26T03:01:03.231Z,90.22
2017-06-26T03:03:31.618Z,90.26
2017-06-26T03:05:59.995Z,90.07
2017-06-26T03:08:28.386Z,89.96
2017-06-26T03:10:57.150Z,89.78
2017-06-26T03:13:25.536Z,89.40
2017-06-26T03:15:53.908Z,89.13
2017-06-26T03:18:22.498Z,89.09
2017-06-26T03:20:50.866Z,88.55
2017-06-26T03:23:19.482Z,88.55
2017-06-26T03:25:48.266Z,88.28
2017-06-26T03:28:17.030Z,88.24
2017-06-26T03:30:45.419Z,88.00
2017-06-26T03:33:13.791Z,87.97
2017-06-26T03:35:42.179Z,88.39
2017-06-26T03:38:10.547Z,88.34
2017-06-26T03:40:39.167Z,88.31
2017-06-26T03:43:07.950Z,88.36
2017-06-26T03:45:36.727Z,88.55
2017-06-26T03:48:05.339Z,88.58
2017-06-26T03:50:33.713Z,88.36
2017-06-26T03:53:02.487Z,88.26
2017-06-26T03:55:30.878Z,88.47
2017-06-26T03:57:59.975Z,88.53
2017-06-26T04:00:28.764Z,88.43
2017-06-26T04:02:57.223Z,88.14
2017-06-26T04:05:25.807Z,87.83
2017-06-26T04:07:55.134Z,87.56
2017-06-26T04:10:23.899Z,86.70
2017-06-26T04:12:53.186Z,85.87
2017-06-26T04:15:21.554Z,85.29
2017-06-26T04:17:49.943Z,84.42
2017-06-26T04:20:18.330Z,83.68
2017-06-26T04:22:46.924Z,83.87
2017-06-26T04:25:15.291Z,83.41
2017-06-26T04:27:43.662Z,84.04
2017-06-26T04:30:12.058Z,84.12
2017-06-26T04:32:40.438Z,83.84
2017-06-26T04:35:09.339Z,83.81
2017-06-26T04:37:37.718Z,83.86
2017-06-26T04:40:06.115Z,84.43
2017-06-26T04:42:34.886Z,84.65
2017-06-26T04:45:03.283Z,84.41
2017-06-26T04:47:32.052Z,84.46
2017-06-26T04:50:01.023Z,84.89
2017-06-26T04:52:29.394Z,86.24
2017-06-26T04:54:57.794Z,87.20
2017-06-26T04:57:26.182Z,87.84
2017-06-26T04:59:54.559Z,88.00
2017-06-26T05:02:22.944Z,88.59
2017-06-26T05:04:51.332Z,88.61
2017-06-26T05:07:20.090Z,89.41
2017-06-26T05:09:48.719Z,89.62
2017-06-26T05:12:17.495Z,89.71
2017-06-26T05:14:45.921Z,90.12
2017-06-26T05:17:14.303Z,90.31
2017-06-26T05:19:42.703Z,90.53
2017-06-26T05:22:11.078Z,90.17
2017-06-26T05:24:39.802Z,89.98
2017-06-26T05:27:08.179Z,90.57
2017-06-26T05:29:36.564Z,90.65
2017-06-26T05:32:05.262Z,91.18
2017-06-26T05:34:34.035Z,91.05
2017-06-26T05:37:02.427Z,91.29
2017-06-26T05:39:31.298Z,91.54
2017-06-26T05:41:59.686Z,91.71
2017-06-26T05:44:28.069Z,92.01
2017-06-26T05:46:56.642Z,91.63
2017-06-26T05:49:25.015Z,91.75
2017-06-26T05:51:53.394Z,91.59
2017-06-26T05:54:22.115Z,91.72
2017-06-26T05:56:50.491Z,91.94
2017-06-26T05:59:19.591Z,92.45
2017-06-26T06:01:48.360Z,92.29
2017-06-26T06:04:17.327Z,92.61
2017-06-26T06:06:45.703Z,93.03
2017-06-26T06:09:14.211Z,93.37
2017-06-26T06:11:42.606Z,93.60
2017-06-26T06:14:11.710Z,94.49
2017-06-26T06:16:40.807Z,95.23
2017-06-26T06:19:09.262Z,95.43
2017-06-26T06:21:37.650Z,95.59
2017-06-26T06:24:06.018Z,95.23
2017-06-26T06:26:34.411Z,95.41
2017-06-26T06:29:02.822Z,96.13
2017-06-26T06:31:31.203Z,96.45
2017-06-26T06:33:59.590Z,96.38
2017-06-26T06:36:27.967Z,96.63
2017-06-26T06:38:56.507Z,96.76
2017-06-26T06:41:24.884Z,96.51
2017-06-26T06:43:53.268Z,96.16
2017-06-26T06:46:21.670Z,96.49
2017-06-26T06:48:50.447Z,95.68
2017-06-26T06:51:19.249Z,95.90
2017-06-26T06:53:48.032Z,95.61
2017-06-26T06:56:16.928Z,95.15
2017-06-26T06:58:45.312Z,94.73
2017-06-26T07:01:14.402Z,94.57
2017-06-26T07:03:43.200Z,95.14
2017-06-26T07:06:11.574Z,94.52
2017-06-26T07:08:40.355Z,93.58
2017-06-26T07:11:09.140Z,93.97
2017-06-26T07:13:37.523Z,94.23
2017-06-26T07:16:06.294Z,93.93
2017-06-26T07:18:34.878Z,93.98
2017-06-26T07:21:03.256Z,93.69
2017-06-26T07:23:31.656Z,93.85
2017-06-26T07:26:00.056Z,93.62
2017-06-26T07:28:28.503Z,92.62
2017-06-26T07:30:56.996Z,93.30
2017-06-26T07:33:25.375Z,92.51
2017-06-26T07:35:54.163Z,91.00
2017-06-26T07:38:23.045Z,91.61
2017-06-26T07:40:51.433Z,89.00
2017-06-26T07:43:19.831Z,88.08
2017-06-26T07:45:48.608Z,81.61
2017-06-26T07:48:16.995Z,78.03
2017-06-26T07:50:45.763Z,78.58
2017-06-26T07:53:14.318Z,72.89
2017-06-26T07:55:42.700Z,70.44
2017-06-26T07:58:11.075Z,68.86
2017-06-26T08:00:39.476Z,67.86
2017-06-26T08:03:07.860Z,68.57
2017-06-26T08:05:36.255Z,64.88
2017-06-26T08:08:04.622Z,61.49
2017-06-26T08:10:33.002Z,61.25
2017-06-26T08:13:01.370Z,62.14
2017-06-26T08:15:29.755Z,62.83
2017-06-26T08:17:58.373Z,60.39
2017-06-26T08:20:27.467Z,59.33
2017-06-26T08:22:56.260Z,53.53
2017-06-26T08:25:25.049Z,52.92
2017-06-26T08:27:53.826Z,51.90
2017-06-26T08:30:22.195Z,51.99
2017-06-26T08:32:50.580Z,50.15
2017-06-26T08:35:18.965Z,49.06
2017-06-26T08:37:47.348Z,44.22
2017-06-26T08:40:15.735Z,40.57
2017-06-26T08:42:44.520Z,40.22
2017-06-26T08:45:13.307Z,39.66
2017-06-26T08:47:42.090Z,36.28
2017-06-26T08:50:10.488Z,37.26
2017-06-26T08:52:38.867Z,39.66
2017-06-26T08:55:07.651Z,40.16
2017-06-26T08:57:36.450Z,42.60
2017-06-26T09:00:04.827Z,41.15
2017-06-26T09:02:33.615Z,41.41
2017-06-26T09:05:02.379Z,40.56
2017-06-26T09:07:30.776Z,38.89
2017-06-26T09:09:59.543Z,36.89
2017-06-26T09:12:27.932Z,39.20
2017-06-26T09:14:56.318Z,40.44
2017-06-26T09:17:25.101Z,40.95
2017-06-26T09:19:53.686Z,40.59
2017-06-26T09:22:22.065Z,40.39
2017-06-26T09:24:50.453Z,40.89
2017-06-26T09:27:19.239Z,40.68
2017-06-26T09:29:48.020Z,38.73
2017-06-26T09:32:16.505Z,36.88
2017-06-26T09:34:45.279Z,35.88
2017-06-26T09:37:13.681Z,35.54
2017-06-26T09:39:42.563Z,33.53
2017-06-26T09:42:10.965Z,31.85
2017-06-26T09:44:40.055Z,29.10
2017-06-26T09:47:08.832Z,28.41
2017-06-26T09:49:37.242Z,26.66
2017-06-26T09:52:05.636Z,30.43
2017-06-26T09:54:34.168Z,32.32
2017-06-26T09:57:03.079Z,30.53
2017-06-26T09:59:31.865Z,27.60
2017-06-26T10:02:00.651Z,24.20
2017-06-26T10:04:29.532Z,23.52
2017-06-26T10:06:58.749Z,23.14
2017-06-26T10:09:27.133Z,22.09
2017-06-26T10:11:55.929Z,23.16
2017-06-26T10:14:24.371Z,24.46
2017-06-26T10:16:52.968Z,25.60
2017-06-26T10:19:21.343Z,26.42
2017-06-26T10:21:49.725Z,26.76
2017-06-26T10:24:18.208Z,26.93
2017-06-26T10:26:46.696Z,29.07
2017-06-26T10:29:15.479Z,26.19
2017-06-26T10:31:43.855Z,23.89
2017-06-26T10:34:12.292Z,24.33
2017-06-26T10:36:40.672Z,25.64
2017-06-26T10:39:09.199Z,28.66
2017-06-26T10:41:37.585Z,30.86
2017-06-26T10:44:05.972Z,33.13
2017-06-26T10:46:34.756Z,35.98
2017-06-26T10:49:03.128Z,37.81
2017-06-26T10:51:32.136Z,36.79
2017-06-26T10:54:00.913Z,35.88
2017-06-26T10:56:29.299Z,35.70
2017-06-26T10:58:57.680Z,35.28
2017-06-26T11:01:26.067Z,33.32
2017-06-26T11:03:54.839Z,32.29
2017-06-26T11:06:23.420Z,31.50
2017-06-26T11:08:51.788Z,29.40
2017-06-26T11:11:20.178Z,29.10
2017-06-26T11:13:48.576Z,28.66
2017-06-26T11:16:17.408Z,29.29
2017-06-26T11:18:45.795Z,30.90
2017-06-26T11:21:14.192Z,34.54
2017-06-26T11:23:42.891Z,36.51
2017-06-26T11:26:11.272Z,36.65
2017-06-26T11:28:39.657Z,38.01
2017-06-26T11:31:08.053Z,39.15
2017-06-26T11:33:36.819Z,40.74
2017-06-26T11:36:05.541Z,41.99
2017-06-26T11:38:34.325Z,42.67
2017-06-26T11:41:03.308Z,43.64
2017-06-26T11:43:32.004Z,44.00
2017-06-26T11:46:00.377Z,44.78
2017-06-26T11:48:29.164Z,45.86
2017-06-26T11:50:57.936Z,46.67
2017-06-26T11:53:26.340Z,46.04
2017-06-26T11:55:55.121Z,45.78
2017-06-26T11:58:23.511Z,42.05
2017-06-26T12:00:52.303Z,42.58
2017-06-26T12:03:21.727Z,42.08
2017-06-26T12:05:50.119Z,41.97
2017-06-26T12:08:18.718Z,42.35
2017-06-26T12:10:47.106Z,43.62
2017-06-26T12:13:15.489Z,44.25
2017-06-26T12:15:43.875Z,42.76
2017-06-26T12:18:12.300Z,43.76
2017-06-26T12:20:40.697Z,44.27
2017-06-26T12:23:09.071Z,44.97
2017-06-26T12:25:38.203Z,44.50
2017-06-26T12:28:06.589Z,44.38
2017-06-26T12:30:34.990Z,42.33
2017-06-26T12:33:03.367Z,42.05
2017-06-26T12:35:31.761Z,42.35
2017-06-26T12:38:00.863Z,42.32
2017-06-26T12:40:29.652Z,43.13
2017-06-26T12:42:58.461Z,43.81
2017-06-26T12:45:26.850Z,42.98
2017-06-26T12:47:55.244Z,42.50
2017-06-26T12:50:23.630Z,43.17
2017-06-26T12:52:52.024Z,41.44
2017-06-26T12:55:20.644Z,42.19
2017-06-26T12:57:49.520Z,42.16
2017-06-26T13:00:17.896Z,41.65
2017-06-26T13:02:46.493Z,40.98
2017-06-26T13:05:15.258Z,40.97
2017-06-26T13:07:43.632Z,40.02
2017-06-26T13:10:12.250Z,40.18
2017-06-26T13:12:41.137Z,40.40
2017-06-26T13:15:09.951Z,41.18
2017-06-26T13:17:38.327Z,41.49
2017-06-26T13:20:07.029Z,42.24
2017-06-26T13:22:35.420Z,41.89
2017-06-26T13:25:03.816Z,42.51
2017-06-26T13:27:32.549Z,42.15
2017-06-26T13:30:00.923Z,41.82
2017-06-26T13:32:29.316Z,41.68
2017-06-26T13:34:57.701Z,41.91
2017-06-26T13:37:26.145Z,41.94
2017-06-26T13:39:54.516Z,42.31
2017-06-26T13:42:23.108Z,42.87
2017-06-26T13:44:51.595Z,43.39
2017-06-26T13:47:20.303Z,43.11
2017-06-26T13:49:48.691Z,42.63
2017-06-26T13:52:17.609Z,43.01
2017-06-26T13:54:46.093Z,42.54
2017-06-26T13:57:14.469Z,42.72
2017-06-26T13:59:43.010Z,43.00
2017-06-26T14:02:11.779Z,43.15
2017-06-26T14:04:40.151Z,43.63
2017-06-26T14:07:08.553Z,43.71
2017-06-26T14:09:36.937Z,43.85
2017-06-26T14:12:05.752Z,43.39
2017-06-26T14:14:34.132Z,42.11
2017-06-26T14:17:02.688Z,41.81
2017-06-26T14:19:31.073Z,41.85
2017-06-26T14:21:59.853Z,41.98
2017-06-26T14:24:28.255Z,42.22
2017-06-26T14:26:57.027Z,41.66
2017-06-26T14:29:25.411Z,41.08
2017-06-26T14:31:54.199Z,41.05
2017-06-26T14:34:22.979Z,42.02
2017-06-26T14:36:51.365Z,42.51
2017-06-26T14:39:19.767Z,42.43
2017-06-26T14:41:48.159Z,42.37
2017-06-26T14:44:17.419Z,42.41
2017-06-26T14:46:45.801Z,43.00
2017-06-26T14:49:14.184Z,43.19
2017-06-26T14:51:42.572Z,42.85
2017-06-26T14:54:11.671Z,42.36
2017-06-26T14:56:40.136Z,42.22
2017-06-26T14:59:08.511Z,42.32
2017-06-26T15:01:36.900Z,42.14
2017-06-26T15:04:05.676Z,42.12
2017-06-26T15:06:34.062Z,42.50
2017-06-26T15:09:02.431Z,41.86
2017-06-26T15:11:31.024Z,42.23
2017-06-26T15:13:59.738Z,42.34
2017-06-26T15:16:28.525Z,43.56
2017-06-26T15:18:57.303Z,43.61
2017-06-26T15:21:26.240Z,43.82
2017-06-26T15:23:54.825Z,44.69
2017-06-26T15:26:23.271Z,44.69
2017-06-26T15:28:52.239Z,43.65
2017-06-26T15:31:20.633Z,43.43
2017-06-26T15:33:49.508Z,43.83
2017-06-26T15:36:17.891Z,43.64
2017-06-26T15:38:46.494Z,43.80
2017-06-26T15:41:15.288Z,44.01
2017-06-26T15:43:44.095Z,44.53
2017-06-26T15:46:12.479Z,44.51
2017-06-26T15:48:40.866Z,44.49
2017-06-26T15:51:09.240Z,44.35
2017-06-26T15:53:37.641Z,44.48
2017-06-26T15:56:06.060Z,43.71
2017-06-26T15:58:34.490Z,42.92
2017-06-26T16:03:37.696Z,43.69
2017-06-26T16:06:06.081Z,43.65
2017-06-26T16:08:34.824Z,43.38
2017-06-26T16:11:03.259Z,43.51
2017-06-26T16:13:31.660Z,43.78
2017-06-26T16:16:00.060Z,43.77
2017-06-26T16:18:28.869Z,44.12
2017-06-26T16:20:57.731Z,43.82
2017-06-26T16:23:26.148Z,44.80
2017-06-26T16:25:54.698Z,45.62
2017-06-26T16:28:23.192Z,45.75
2017-06-26T16:30:52.085Z,46.02
2017-06-26T16:33:20.873Z,45.43
2017-06-26T16:35:49.656Z,45.67
2017-06-26T16:38:18.053Z,44.81
2017-06-26T16:40:46.818Z,44.81
2017-06-26T16:43:15.404Z,45.00
2017-06-26T16:45:43.792Z,45.14
2017-06-26T16:48:12.168Z,44.83
2017-06-26T16:50:40.599Z,44.50
2017-06-26T16:53:08.977Z,44.78
2017-06-26T16:55:37.362Z,45.46
2017-06-26T16:58:05.752Z,46.20
2017-06-26T17:00:34.143Z,46.30
2017-06-26T17:03:02.520Z,47.39
2017-06-26T17:05:30.977Z,47.40
2017-06-26T17:07:59.360Z,47.78
2017-06-26T17:10:27.996Z,47.17
2017-06-26T17:12:56.384Z,46.70
2017-06-26T17:15:25.488Z,46.49
2017-06-26T17:17:54.158Z,46.45
2017-06-26T17:20:22.544Z,46.08
2017-06-26T17:22:51.332Z,46.55
2017-06-26T17:25:20.102Z,46.71
2017-06-26T17:27:48.499Z,46.47
2017-06-26T17:30:16.886Z,46.52
2017-06-26T17:32:45.673Z,46.29
2017-06-26T17:35:14.448Z,46.52
2017-06-26T17:37:43.040Z,46.15
2017-06-26T17:40:11.936Z,46.53
2017-06-26T17:42:40.825Z,46.71
2017-06-26T17:45:09.607Z,47.45
2017-06-26T17:47:38.587Z,47.46
2017-06-26T17:50:06.986Z,47.81
2017-06-26T17:52:35.368Z,48.67
2017-06-26T17:55:04.054Z,49.15
2017-06-26T17:57:32.437Z,49.64
2017-06-26T18:00:01.207Z,49.89
2017-06-26T18:02:29.599Z,50.23
2017-06-26T18:04:57.981Z,50.61
2017-06-26T18:07:26.611Z,50.76
2017-06-26T18:09:55.003Z,51.30
2017-06-26T18:12:23.642Z,51.32
2017-06-26T18:14:52.843Z,51.55
2017-06-26T18:17:21.631Z,51.38
2017-06-26T18:19:50.017Z,51.77
2017-06-26T18:22:18.984Z,52.34
2017-06-26T18:24:47.374Z,52.56
2017-06-26T18:27:17.487Z,52.67
2017-06-26T18:29:45.882Z,53.15
2017-06-26T18:32:14.748Z,53.56
2017-06-26T18:34:43.156Z,54.26
2017-06-26T18:37:11.929Z,54.12
2017-06-26T18:39:40.720Z,54.37
2017-06-26T18:42:09.091Z,54.75
2017-06-26T18:44:37.575Z,55.06
2017-06-26T18:47:05.972Z,55.51
2017-06-26T18:49:34.857Z,55.70
2017-06-26T18:52:03.258Z,55.91
2017-06-26T18:54:31.693Z,56.43
2017-06-26T18:57:00.226Z,56.73
2017-06-26T18:59:28.674Z,56.80
2017-06-26T19:01:57.058Z,56.89
2017-06-26T19:04:25.445Z,57.11
2017-06-26T19:06:54.433Z,57.44
2017-06-26T19:09:22.807Z,57.63
2017-06-26T19:11:51.240Z,57.94
2017-06-26T19:14:19.633Z,58.52
2017-06-26T19:16:48.021Z,58.26
2017-06-26T19:19:16.407Z,57.40
2017-06-26T19:21:44.784Z,56.70
2017-06-26T19:24:13.516Z,56.77
2017-06-26T19:26:42.284Z,55.97
2017-06-26T19:29:10.863Z,56.10
2017-06-26T19:31:39.471Z,56.49
2017-06-26T19:34:08.579Z,55.80
2017-06-26T19:36:36.985Z,55.16
2017-06-26T19:39:05.377Z,54.53
2017-06-26T19:41:33.775Z,54.33
2017-06-26T19:44:02.860Z,54.30
2017-06-26T19:46:31.482Z,53.90
2017-06-26T19:49:00.250Z,54.28
2017-06-26T19:51:29.333Z,54.40
2017-06-26T19:53:57.894Z,54.61
2017-06-26T19:56:26.300Z,55.14
2017-06-26T19:58:54.888Z,55.38
2017-06-26T20:01:23.284Z,56.07
2017-06-26T20:03:51.881Z,56.48
2017-06-26T20:06:20.654Z,56.49
2017-06-26T20:08:49.031Z,57.02
2017-06-26T20:11:17.419Z,57.20
2017-06-26T20:13:45.853Z,57.23
2017-06-26T20:16:14.239Z,57.51
2017-06-26T20:18:42.815Z,57.43
2017-06-26T20:21:11.219Z,56.76
2017-06-26T20:23:39.604Z,56.97
2017-06-26T20:26:07.992Z,56.50
2017-06-26T20:28:36.373Z,57.13
2017-06-26T20:31:05.300Z,57.25
2017-06-26T20:33:34.387Z,57.06
2017-06-26T20:36:03.164Z,57.01
2017-06-26T20:38:31.862Z,57.10
2017-06-26T20:41:00.668Z,57.54
2017-06-26T20:43:29.082Z,57.30
2017-06-26T20:45:57.469Z,57.74
2017-06-26T20:48:25.971Z,57.83
2017-06-26T20:50:55.273Z,58.13
2017-06-26T20:53:23.656Z,58.06
2017-06-26T20:55:52.051Z,57.99
2017-06-26T20:58:20.836Z,58.05
2017-06-26T21:00:49.241Z,57.96
2017-06-26T21:03:17.639Z,58.40
2017-06-26T21:05:46.048Z,58.64
2017-06-26T21:08:14.436Z,58.58
2017-06-26T21:10:42.979Z,58.80
2017-06-26T21:13:11.350Z,59.14
2017-06-26T21:15:39.736Z,59.32
2017-06-26T21:18:08.400Z,59.83
2017-06-26T21:20:37.181Z,59.41
2017-06-26T21:23:05.981Z,59.61
2017-06-26T21:25:34.756Z,59.15
2017-06-26T21:28:03.553Z,59.45
2017-06-26T21:30:32.326Z,59.30
2017-06-26T21:33:00.720Z,58.83
2017-06-26T21:35:30.432Z,58.69
2017-06-26T21:37:59.228Z,59.24
2017-06-26T21:40:28.094Z,59.17
2017-06-26T21:42:56.471Z,59.88
2017-06-26T21:45:24.869Z,59.61
2017-06-26T21:47:53.736Z,60.16
2017-06-26T21:50:22.141Z,60.08
2017-06-26T21:52:50.928Z,60.71
2017-06-26T21:55:19.909Z,60.95
2017-06-26T21:57:48.296Z,61.18
2017-06-26T22:00:16.681Z,61.83
2017-06-26T22:02:45.527Z,61.92
2017-06-26T22:05:13.913Z,62.30
2017-06-26T22:07:42.321Z,62.51
2017-06-26T22:10:10.795Z,63.12
2017-06-26T22:12:39.192Z,63.08
2017-06-26T22:15:07.997Z,63.15
2017-06-26T22:17:36.893Z,63.57
2017-06-26T22:20:05.277Z,64.09
2017-06-26T22:22:33.666Z,64.71
2017-06-26T22:25:02.064Z,64.46
2017-06-26T22:27:30.475Z,64.89
2017-06-26T22:29:59.097Z,65.21
2017-06-26T22:32:27.483Z,65.44
2017-06-26T22:34:55.889Z,65.68
2017-06-26T22:37:24.499Z,65.78
2017-06-26T22:39:53.009Z,65.88
2017-06-26T22:42:21.779Z,66.09
2017-06-26T22:44:50.697Z,66.31
2017-06-26T22:47:19.492Z,65.67
2017-06-26T22:49:48.272Z,65.99
2017-06-26T22:52:17.068Z,66.34
2017-06-26T22:54:45.835Z,66.40
2017-06-26T22:57:14.522Z,66.62
2017-06-26T22:59:43.226Z,66.17
2017-06-26T23:02:13.255Z,66.15
2017-06-26T23:04:41.653Z,66.00
2017-06-26T23:07:10.311Z,64.98
2017-06-26T23:09:39.184Z,65.33
2017-06-26T23:12:07.557Z,65.18
2017-06-26T23:14:36.160Z,65.13
2017-06-26T23:17:04.935Z,65.55
2017-06-26T23:19:33.321Z,65.54
2017-06-26T23:22:01.749Z,65.27
2017-06-26T23:24:30.132Z,65.48
2017-06-26T23:26:58.519Z,65.43
2017-06-26T23:29:26.895Z,66.08
2017-06-26T23:31:55.395Z,66.01
2017-06-26T23:34:23.770Z,66.38
2017-06-26T23:36:52.405Z,66.81
2017-06-26T23:39:21.192Z,67.22
2017-06-26T23:41:49.581Z,67.55
2017-06-26T23:44:18.439Z,67.77
2017-06-26T23:46:46.826Z,68.02
2017-06-26T23:49:15.224Z,68.21
2017-06-26T23:51:44.012Z,68.68
2017-06-26T23:54:12.833Z,68.70
2017-06-26T23:56:41.216Z,68.79
2017-06-26T23:59:09.753Z,68.75
